Time;durP1;ratioP1;P1;durP2;ratioP2;P2;SDS_P1;SDS_P2;PMS_P1;PMS_P2;Temp;Humidity;BMP_temperature;BMP_pressure;BME280_temperature;BME280_humidity;BME280_pressure;Samples;Min_cycle;Max_cycle;Signal;HPM_P1;HPM_P2
2022/02/09 00:02:01;;;;;;;;;;;22.50;46.10;;;;;;5141559;27;20336;-45
2022/02/09 00:04:37;;;;;;;;;;;22.40;46.00;;;;;;5154965;27;19923;-46
2022/02/09 00:07:18;;;;;;;;;;;22.40;46.00;;;;;;5134539;28;19954;-45
2022/02/09 00:09:47;;;;;;;;;;;22.40;46.00;;;;;;5134183;28;19927;-49
2022/02/09 00:12:40;;;;;;;;;;;22.40;46.00;;;;;;5136429;27;19988;-43
2022/02/09 00:15:24;;;;;;;;;;;22.40;46.00;;;;;;5154865;27;19924;-47
2022/02/09 00:18:06;;;;;;;;;;;22.40;46.00;;;;;;5154225;27;20361;-46
2022/02/09 00:21:26;;;;;;;;;;;22.40;45.90;;;;;;5155099;27;19923;-45
2022/02/09 00:23:50;;;;;;;;;;;22.40;45.90;;;;;;5150873;27;19968;-44
2022/02/09 00:27:00;;;;;;;;;;;22.40;45.90;;;;;;5155081;27;19923;-45
2022/02/09 00:39:56;;;;;;;;;;;22.40;46.50;;;;;;5158403;27;19998;-45
2022/02/09 01:39:05;;;;;;;;;;;22.40;45.80;;;;;;5157284;27;19923;-44
2022/02/09 01:55:34;;;;;;;;;;;22.30;45.70;;;;;;5093221;28;20372;-44
2022/02/09 01:58:02;;;;;;;;;;;22.30;45.70;;;;;;5092901;28;19931;-47
2022/02/09 02:00:29;;;;;;;;;;;22.30;45.70;;;;;;5092814;28;19989;-45
2022/02/09 02:02:56;;;;;;;;;;;22.30;45.70;;;;;;5092161;28;19936;-43
2022/02/09 02:05:23;;;;;;;;;;;22.30;45.70;;;;;;5085113;28;20343;-44
2022/02/09 02:07:54;;;;;;;;;;;22.30;45.70;;;;;;5072662;28;20341;-48
2022/02/09 02:11:28;;;;;;;;;;;22.30;45.60;;;;;;5072758;28;19932;-46
2022/02/09 02:16:20;;;;;;;;;;;22.30;45.70;;;;;;5092695;28;19973;-44
2022/02/09 02:18:53;;;;;;;;;;;22.30;45.60;;;;;;5091786;28;19935;-46
2022/02/09 02:24:37;;;;;;;;;;;22.30;45.70;;;;;;5124993;27;19924;-45
2022/02/09 02:35:38;;;;;;;;;;;22.30;45.60;;;;;;5155706;27;19984;-48
2022/02/09 02:38:03;;;;;;;;;;;22.30;45.60;;;;;;5155997;27;19923;-49
2022/02/09 03:13:05;;;;;;;;;;;22.30;45.50;;;;;;5071693;28;20343;-44
2022/02/09 03:15:40;;;;;;;;;;;22.30;45.50;;;;;;5085427;28;20353;-43
2022/02/09 03:21:06;;;;;;;;;;;22.30;45.50;;;;;;5091693;28;19924;-44
2022/02/09 03:23:51;;;;;;;;;;;22.30;45.50;;;;;;5091469;28;19925;-44
2022/02/09 03:42:44;;;;;;;;;;;22.20;45.40;;;;;;5155162;27;20366;-45
2022/02/09 03:50:47;;;;;;;;;;;22.20;45.40;;;;;;5154659;27;19930;-43
2022/02/09 03:53:27;;;;;;;;;;;22.20;45.40;;;;;;5154651;27;19923;-44
2022/02/09 03:58:40;;;;;;;;;;;22.20;45.40;;;;;;5155003;27;20423;-45
2022/02/09 04:01:07;;;;;;;;;;;22.20;45.40;;;;;;5153880;27;20379;-44
2022/02/09 04:03:34;;;;;;;;;;;22.20;45.50;;;;;;5154762;27;20035;-48
2022/02/09 04:06:01;;;;;;;;;;;22.20;45.40;;;;;;5145206;27;19927;-44
2022/02/09 04:08:34;;;;;;;;;;;22.20;45.40;;;;;;5138566;27;19973;-45
2022/02/09 04:11:11;;;;;;;;;;;22.20;45.50;;;;;;5138317;27;19924;-45
2022/02/09 04:13:58;;;;;;;;;;;22.20;45.40;;;;;;5138204;27;19923;-45
2022/02/09 04:50:57;;;;;;;;;;;22.20;45.40;;;;;;5157795;27;19923;-48
2022/02/09 04:56:27;;;;;;;;;;;22.20;45.40;;;;;;5158163;27;19930;-47
2022/02/09 05:23:41;;;;;;;;;;;22.10;45.30;;;;;;5157377;27;20350;-47
2022/02/09 05:26:21;;;;;;;;;;;22.10;45.30;;;;;;5157572;27;19923;-45
2022/02/09 05:28:48;;;;;;;;;;;22.10;45.30;;;;;;5157832;27;19968;-45
2022/02/09 05:31:15;;;;;;;;;;;22.10;45.40;;;;;;5156368;27;20382;-45
2022/02/09 05:33:44;;;;;;;;;;;22.10;45.40;;;;;;5157696;27;19923;-44
2022/02/09 05:36:11;;;;;;;;;;;22.10;45.30;;;;;;5156865;27;19960;-50
2022/02/09 05:38:38;;;;;;;;;;;22.10;45.30;;;;;;5157301;27;20345;-47
2022/02/09 05:41:05;;;;;;;;;;;22.10;45.30;;;;;;5157199;27;19958;-48
2022/02/09 05:43:32;;;;;;;;;;;22.10;45.30;;;;;;5157414;27;20331;-46
2022/02/09 05:46:46;;;;;;;;;;;22.10;45.30;;;;;;5155964;27;19923;-44
2022/02/09 05:49:27;;;;;;;;;;;22.10;45.40;;;;;;5157004;27;19972;-46
2022/02/09 05:51:55;;;;;;;;;;;22.10;45.30;;;;;;5155987;27;19927;-45
2022/02/09 05:57:11;;;;;;;;;;;22.10;45.30;;;;;;5156936;27;20017;-44
2022/02/09 05:59:36;;;;;;;;;;;22.10;45.30;;;;;;5156780;27;19987;-46
2022/02/09 06:02:03;;;;;;;;;;;22.10;45.30;;;;;;5155721;27;20013;-46
2022/02/09 06:04:30;;;;;;;;;;;22.10;45.40;;;;;;5156455;27;19983;-49
2022/02/09 06:06:58;;;;;;;;;;;22.10;45.40;;;;;;5152903;27;19926;-44
2022/02/09 06:09:27;;;;;;;;;;;22.10;45.40;;;;;;5156964;27;19923;-48
2022/02/09 06:12:08;;;;;;;;;;;22.10;45.40;;;;;;5156901;27;19923;-49
2022/02/09 06:19:54;;;;;;;;;;;22.10;45.40;;;;;;5156323;27;19923;-48
2022/02/09 06:22:22;;;;;;;;;;;22.10;45.40;;;;;;5155768;27;19927;-46
2022/02/09 06:24:51;;;;;;;;;;;22.10;45.40;;;;;;5156240;27;19923;-46
2022/02/09 06:27:18;;;;;;;;;;;22.10;45.40;;;;;;5155178;27;19972;-46
2022/02/09 06:29:46;;;;;;;;;;;22.00;45.30;;;;;;5156226;27;19931;-45
2022/02/09 06:32:14;;;;;;;;;;;22.10;45.40;;;;;;5155122;27;19923;-45
2022/02/09 06:34:45;;;;;;;;;;;22.10;45.40;;;;;;5156381;27;19976;-44
2022/02/09 06:39:44;;;;;;;;;;;22.00;45.30;;;;;;5135367;27;19923;-44
2022/02/09 06:42:12;;;;;;;;;;;22.00;45.30;;;;;;5135278;27;19930;-44
2022/02/09 06:44:39;;;;;;;;;;;22.00;45.30;;;;;;5135462;27;20332;-45
2022/02/09 06:47:06;;;;;;;;;;;22.00;45.30;;;;;;5142906;27;19923;-43
2022/02/09 06:49:34;;;;;;;;;;;22.00;45.30;;;;;;5156240;27;19923;-44
2022/02/09 06:52:01;;;;;;;;;;;22.00;45.30;;;;;;5154860;27;20014;-46
2022/02/09 06:54:45;;;;;;;;;;;22.00;45.30;;;;;;5155830;27;20017;-44
2022/02/09 06:57:29;;;;;;;;;;;22.00;45.30;;;;;;5155761;27;19923;-46
2022/02/09 06:59:56;;;;;;;;;;;22.00;45.30;;;;;;5155718;27;19923;-45
2022/02/09 07:02:23;;;;;;;;;;;22.00;45.30;;;;;;5136532;27;19923;-47
2022/02/09 07:04:50;;;;;;;;;;;22.00;45.30;;;;;;5152452;27;20320;-45
2022/02/09 07:07:17;;;;;;;;;;;22.00;45.30;;;;;;5148772;27;19984;-45
2022/02/09 07:09:46;;;;;;;;;;;22.00;45.20;;;;;;5155504;27;20397;-45
2022/02/09 07:12:13;;;;;;;;;;;22.00;45.30;;;;;;5155379;27;20370;-44
2022/02/09 07:14:40;;;;;;;;;;;22.00;45.30;;;;;;5155536;27;19923;-45
2022/02/09 07:17:07;;;;;;;;;;;22.00;45.30;;;;;;5154213;27;20032;-45
2022/02/09 07:19:36;;;;;;;;;;;22.00;45.30;;;;;;5155196;27;19932;-43
2022/02/09 07:22:03;;;;;;;;;;;22.00;45.20;;;;;;5154752;27;19923;-44
2022/02/09 07:24:31;;;;;;;;;;;22.00;45.20;;;;;;5155567;27;19987;-43
2022/02/09 07:27:24;;;;;;;;;;;22.00;45.20;;;;;;5155275;27;19923;-47
2022/02/09 07:29:48;;;;;;;;;;;22.00;45.20;;;;;;5155200;27;19930;-45
2022/02/09 07:32:15;;;;;;;;;;;22.00;45.20;;;;;;5154485;27;19958;-46
2022/02/09 07:34:42;;;;;;;;;;;22.00;45.20;;;;;;5155235;27;19979;-47
2022/02/09 07:37:09;;;;;;;;;;;22.00;45.20;;;;;;5144217;27;19976;-43
2022/02/09 07:39:38;;;;;;;;;;;22.00;45.20;;;;;;5134381;27;19927;-43
2022/02/09 07:42:10;;;;;;;;;;;22.00;45.20;;;;;;5134385;28;19923;-46
2022/02/09 07:48:12;;;;;;;;;;;22.00;45.20;;;;;;5138742;27;19923;-47
2022/02/09 07:50:34;;;;;;;;;;;22.00;45.20;;;;;;5152266;27;19927;-45
2022/02/09 07:53:08;;;;;;;;;;;22.00;45.20;;;;;;5154570;27;19953;-45
2022/02/09 07:55:36;;;;;;;;;;;22.00;45.10;;;;;;5155162;27;20434;-48
2022/02/09 07:58:03;;;;;;;;;;;22.00;45.10;;;;;;5155044;27;19930;-45
2022/02/09 08:00:31;;;;;;;;;;;22.00;45.20;;;;;;5155122;27;19927;-44
2022/02/09 08:02:58;;;;;;;;;;;22.00;45.10;;;;;;5154377;27;20378;-49
2022/02/09 08:05:25;;;;;;;;;;;22.00;45.10;;;;;;5146441;27;19927;-43
2022/02/09 08:07:53;;;;;;;;;;;22.00;45.10;;;;;;5147720;27;19968;-44
2022/02/09 08:10:29;;;;;;;;;;;22.00;45.10;;;;;;5155165;27;20331;-47
2022/02/09 08:25:44;;;;;;;;;;;22.00;45.10;;;;;;5133990;28;20370;-47
2022/02/09 08:34:58;;;;;;;;;;;22.00;45.00;;;;;;5154629;27;19923;-45
2022/02/09 08:37:25;;;;;;;;;;;22.10;45.10;;;;;;5153936;27;19923;-45
2022/02/09 08:39:54;;;;;;;;;;;22.10;45.10;;;;;;5154619;27;20443;-48
2022/02/09 08:42:22;;;;;;;;;;;22.10;45.00;;;;;;5155421;27;19923;-45
2022/02/09 08:44:49;;;;;;;;;;;22.10;45.00;;;;;;5154657;27;19996;-46
2022/02/09 08:47:36;;;;;;;;;;;22.10;45.00;;;;;;5154469;27;19923;-45
2022/02/09 08:50:04;;;;;;;;;;;22.10;45.00;;;;;;5154489;27;19923;-46
2022/02/09 08:52:31;;;;;;;;;;;22.10;45.00;;;;;;5157265;27;19923;-46
2022/02/09 08:54:58;;;;;;;;;;;22.10;45.00;;;;;;5158140;27;19927;-44
2022/02/09 08:57:27;;;;;;;;;;;22.10;45.00;;;;;;5158256;27;19930;-46
2022/02/09 08:59:55;;;;;;;;;;;22.10;45.00;;;;;;5158318;27;19923;-44
2022/02/09 09:02:30;;;;;;;;;;;22.10;45.00;;;;;;5140780;27;19923;-43
2022/02/09 09:05:08;;;;;;;;;;;22.10;45.00;;;;;;5152873;27;19927;-48
2022/02/09 09:07:37;;;;;;;;;;;22.10;45.00;;;;;;5142240;27;19923;-45
2022/02/09 09:10:21;;;;;;;;;;;22.10;44.90;;;;;;5158092;27;19971;-45
2022/02/09 10:33:58;;;;;;;;;;;22.20;44.20;;;;;;5155240;27;20025;-43
2022/02/09 10:36:25;;;;;;;;;;;22.20;44.20;;;;;;5156074;27;19959;-44
2022/02/09 10:39:03;;;;;;;;;;;22.20;44.20;;;;;;5155381;27;20298;-47
2022/02/09 10:41:37;;;;;;;;;;;22.20;44.20;;;;;;5138122;27;19923;-49
2022/02/09 10:44:06;;;;;;;;;;;22.30;44.30;;;;;;5156370;27;20343;-46
2022/02/09 10:46:45;;;;;;;;;;;22.30;44.20;;;;;;5156066;27;20030;-46
2022/02/09 10:49:12;;;;;;;;;;;22.30;44.20;;;;;;5155247;27;20339;-48
2022/02/09 10:51:46;;;;;;;;;;;22.30;44.20;;;;;;5155668;27;19923;-45
2022/02/09 10:54:18;;;;;;;;;;;22.30;44.20;;;;;;5155424;27;19991;-52
2022/02/09 10:56:46;;;;;;;;;;;22.30;44.20;;;;;;5137464;27;19927;-46
2022/02/09 10:59:15;;;;;;;;;;;22.30;44.20;;;;;;5156034;27;19945;-46
2022/02/09 11:01:43;;;;;;;;;;;22.30;44.20;;;;;;5155955;27;19923;-52
2022/02/09 11:04:11;;;;;;;;;;;22.30;44.20;;;;;;5154891;27;19984;-50
2022/02/09 11:06:40;;;;;;;;;;;22.30;44.20;;;;;;5136960;27;19927;-51
2022/02/09 11:09:11;;;;;;;;;;;22.30;44.20;;;;;;5141166;27;19923;-53
2022/02/09 11:11:39;;;;;;;;;;;22.30;44.20;;;;;;5155542;27;19930;-48
2022/02/09 11:14:07;;;;;;;;;;;22.30;44.20;;;;;;5155147;27;19930;-52
2022/02/09 11:16:35;;;;;;;;;;;22.30;44.20;;;;;;5155305;27;19968;-47
2022/02/09 11:19:03;;;;;;;;;;;22.30;44.20;;;;;;5155230;27;20462;-50
2022/02/09 11:21:32;;;;;;;;;;;22.30;44.20;;;;;;5134175;27;20563;-52
2022/02/09 11:24:10;;;;;;;;;;;22.30;44.10;;;;;;5138616;27;20275;-52
2022/02/09 11:27:23;;;;;;;;;;;22.30;44.10;;;;;;5155286;27;19927;-54
2022/02/09 11:29:46;;;;;;;;;;;22.30;44.20;;;;;;5151081;27;19931;-50
2022/02/09 11:32:26;;;;;;;;;;;22.30;44.10;;;;;;5155254;27;19923;-49
2022/02/09 11:43:17;;;;;;;;;;;22.30;44.10;;;;;;5155475;27;19927;-45
2022/02/09 11:46:16;;;;;;;;;;;22.30;44.10;;;;;;5155194;27;19970;-44
2022/02/09 11:51:52;;;;;;;;;;;22.30;44.20;;;;;;5153813;27;19965;-46
2022/02/09 12:11:57;;;;;;;;;;;22.40;44.20;;;;;;5091252;28;20298;-47
2022/02/09 12:14:50;;;;;;;;;;;22.40;44.20;;;;;;5091752;28;19972;-44
2022/02/09 12:20:06;;;;;;;;;;;22.40;44.20;;;;;;5090074;28;20377;-46
2022/02/09 12:23:14;;;;;;;;;;;22.40;44.20;;;;;;5090903;28;19961;-46
2022/02/09 12:25:41;;;;;;;;;;;22.40;44.20;;;;;;5089099;28;19977;-44
2022/02/09 12:28:13;;;;;;;;;;;22.40;44.10;;;;;;5078251;28;20440;-45
2022/02/09 12:30:40;;;;;;;;;;;22.40;44.20;;;;;;5094893;28;19963;-44
2022/02/09 12:33:27;;;;;;;;;;;22.40;44.10;;;;;;5097869;27;19924;-49
2022/02/09 12:36:06;;;;;;;;;;;22.40;44.20;;;;;;5145708;27;19924;-45
2022/02/09 12:38:33;;;;;;;;;;;22.40;44.20;;;;;;5158790;27;19923;-46
2022/02/09 12:41:12;;;;;;;;;;;22.40;44.20;;;;;;5157676;27;20445;-48
2022/02/09 12:43:52;;;;;;;;;;;22.40;44.10;;;;;;5158425;27;19926;-45
2022/02/09 12:46:21;;;;;;;;;;;22.40;44.10;;;;;;5158382;27;19923;-47
2022/02/09 12:48:50;;;;;;;;;;;22.40;44.20;;;;;;5158300;27;19926;-50
2022/02/09 12:51:20;;;;;;;;;;;22.40;44.10;;;;;;5146824;27;20332;-44
2022/02/09 12:53:48;;;;;;;;;;;22.40;44.10;;;;;;5137162;27;19972;-48
2022/02/09 12:56:19;;;;;;;;;;;22.40;44.10;;;;;;5137169;27;20324;-47
2022/02/09 12:59:00;;;;;;;;;;;22.40;44.10;;;;;;5137402;27;19927;-45
2022/02/09 13:01:27;;;;;;;;;;;22.40;44.10;;;;;;5137568;27;19923;-45
2022/02/09 13:03:54;;;;;;;;;;;22.40;44.10;;;;;;5137439;27;19924;-46
2022/02/09 13:06:21;;;;;;;;;;;22.40;44.10;;;;;;5152277;27;19930;-44
2022/02/09 13:08:52;;;;;;;;;;;22.40;44.10;;;;;;5158140;27;19923;-46
2022/02/09 13:11:28;;;;;;;;;;;22.40;44.10;;;;;;5143036;27;19942;-46
2022/02/09 13:14:06;;;;;;;;;;;22.40;44.10;;;;;;5137036;27;19945;-45
2022/02/09 14:03:59;;;;;;;;;;;22.30;44.10;;;;;;5157223;27;19958;-47
2022/02/09 14:14:47;;;;;;;;;;;22.30;44.20;;;;;;5156972;27;19926;-46
2022/02/09 14:34:36;;;;;;;;;;;22.30;44.20;;;;;;5156246;27;19930;-50
2022/02/09 14:52:43;;;;;;;;;;;22.30;44.20;;;;;;5154998;27;19923;-52
2022/02/09 14:58:07;;;;;;;;;;;22.30;44.20;;;;;;5091265;28;19928;-47
2022/02/09 15:00:50;;;;;;;;;;;22.30;44.20;;;;;;5092317;28;19958;-47
2022/02/09 15:03:37;;;;;;;;;;;22.30;44.20;;;;;;5092225;28;19993;-43
2022/02/09 15:06:41;;;;;;;;;;;22.30;44.20;;;;;;5078312;28;20015;-45
2022/02/09 15:09:15;;;;;;;;;;;22.30;44.30;;;;;;5071753;28;19992;-42
2022/02/09 15:11:58;;;;;;;;;;;22.30;44.20;;;;;;5075943;28;19924;-47
2022/02/09 15:14:50;;;;;;;;;;;22.30;44.30;;;;;;5091820;28;20422;-46
2022/02/09 15:22:35;;;;;;;;;;;22.30;44.30;;;;;;5090791;28;19928;-43
2022/02/09 15:25:10;;;;;;;;;;;22.30;44.30;;;;;;5091797;28;19974;-44
2022/02/09 15:27:37;;;;;;;;;;;22.20;44.20;;;;;;5090906;28;19925;-52
2022/02/09 15:30:06;;;;;;;;;;;22.30;44.30;;;;;;5091675;28;20387;-46
2022/02/09 15:32:40;;;;;;;;;;;22.30;44.30;;;;;;5091643;28;19946;-47
2022/02/09 15:35:33;;;;;;;;;;;22.20;44.20;;;;;;5114086;27;19931;-46
2022/02/09 15:40:38;;;;;;;;;;;22.20;44.20;;;;;;5155442;27;19927;-48
2022/02/09 15:57:04;;;;;;;;;;;22.20;44.20;;;;;;5154693;27;19927;-47
2022/02/09 16:05:41;;;;;;;;;;;22.20;44.30;;;;;;5156675;27;19968;-50
2022/02/09 16:25:13;;;;;;;;;;;22.20;44.40;;;;;;5094183;28;20426;-51
2022/02/09 16:33:19;;;;;;;;;;;22.10;44.40;;;;;;5094928;28;19924;-42
2022/02/09 16:46:54;;;;;;;;;;;22.10;44.40;;;;;;5094633;28;19936;-44
2022/02/09 16:49:32;;;;;;;;;;;22.10;44.50;;;;;;5094613;28;19928;-44
2022/02/09 16:52:06;;;;;;;;;;;22.10;44.50;;;;;;5094364;28;19938;-43
2022/02/09 17:08:24;;;;;;;;;;;22.10;44.50;;;;;;5158200;27;19945;-45
2022/02/09 17:08:38;;;;;;;;;;;22.00;44.50;;;;;;5139209;27;19980;-44
2022/02/09 17:19:32;;;;;;;;;;;22.00;44.60;;;;;;5157661;27;19923;-43
2022/02/09 17:21:59;;;;;;;;;;;22.00;44.60;;;;;;5157818;27;19967;-44
2022/02/09 17:24:26;;;;;;;;;;;22.00;44.50;;;;;;5138453;27;19923;-43
2022/02/09 17:26:54;;;;;;;;;;;22.00;44.50;;;;;;5157833;27;19958;-43
2022/02/09 17:29:26;;;;;;;;;;;22.00;44.60;;;;;;5156807;27;19930;-44
2022/02/09 17:32:07;;;;;;;;;;;22.00;44.60;;;;;;5158731;27;19922;-43
2022/02/09 17:53:28;;;;;;;;;;;22.00;44.60;;;;;;5156428;27;19974;-44
2022/02/09 17:56:13;;;;;;;;;;;21.90;44.50;;;;;;5157341;27;20370;-43
2022/02/09 17:58:48;;;;;;;;;;;22.00;44.70;;;;;;5151683;27;19977;-43
2022/02/09 18:01:16;;;;;;;;;;;22.00;44.70;;;;;;5136523;27;19924;-43
2022/02/09 18:03:44;;;;;;;;;;;21.90;44.60;;;;;;5136170;27;19976;-44
2022/02/09 18:06:29;;;;;;;;;;;22.00;44.70;;;;;;5150807;27;19923;-44
2022/02/09 18:12:02;;;;;;;;;;;22.00;44.70;;;;;;5157060;27;19930;-42
2022/02/09 18:38:38;;;;;;;;;;;22.00;44.60;;;;;;5156532;27;19984;-43
2022/02/09 19:05:15;;;;;;;;;;;21.90;44.50;;;;;;5087390;28;20261;-45
2022/02/09 19:19:06;;;;;;;;;;;22.00;44.60;;;;;;5091687;28;20005;-43
2022/02/09 19:48:35;;;;;;;;;;;22.00;44.50;;;;;;5155444;27;19923;-46
2022/02/09 19:51:35;;;;;;;;;;;22.00;44.50;;;;;;5155150;27;19927;-43
2022/02/09 19:56:45;;;;;;;;;;;22.00;45.10;;;;;;5154410;27;19923;-44
2022/02/09 19:59:18;;;;;;;;;;;22.00;44.50;;;;;;5155410;27;20373;-44
2022/02/09 20:01:46;;;;;;;;;;;22.00;44.50;;;;;;5135682;27;19928;-44
2022/02/09 20:04:14;;;;;;;;;;;22.00;44.50;;;;;;5134600;28;19924;-44
2022/02/09 20:06:43;;;;;;;;;;;22.00;44.50;;;;;;5153249;27;19968;-45
2022/02/09 20:09:10;;;;;;;;;;;22.00;44.50;;;;;;5155194;27;19923;-43
2022/02/09 20:11:42;;;;;;;;;;;22.00;44.50;;;;;;5154246;27;19923;-46
2022/02/09 20:14:11;;;;;;;;;;;22.00;44.50;;;;;;5154825;27;19923;-48
2022/02/09 20:16:38;;;;;;;;;;;22.00;44.50;;;;;;5154111;27;19930;-44
2022/02/09 20:19:06;;;;;;;;;;;22.00;44.50;;;;;;5136405;27;19923;-45
2022/02/09 20:21:33;;;;;;;;;;;22.00;44.40;;;;;;5154901;27;19938;-45
2022/02/09 20:24:02;;;;;;;;;;;22.00;45.00;;;;;;5154804;27;20343;-46
2022/02/09 20:26:30;;;;;;;;;;;22.00;44.40;;;;;;5153780;27;19930;-48
2022/02/09 20:29:02;;;;;;;;;;;22.00;44.40;;;;;;5154686;27;19923;-45
2022/02/09 20:31:34;;;;;;;;;;;22.00;44.40;;;;;;5154344;27;19923;-43
2022/02/09 20:34:09;;;;;;;;;;;22.00;44.40;;;;;;5155063;27;19926;-48
2022/02/09 20:36:37;;;;;;;;;;;22.00;44.40;;;;;;5155023;27;19946;-42
2022/02/09 20:39:06;;;;;;;;;;;22.00;44.40;;;;;;5154933;27;20340;-45
2022/02/09 20:41:35;;;;;;;;;;;22.00;44.40;;;;;;5153860;27;19927;-49
2022/02/09 20:44:20;;;;;;;;;;;22.00;44.40;;;;;;5154792;27;19927;-46
2022/02/09 20:46:48;;;;;;;;;;;22.00;44.40;;;;;;5156670;27;20417;-50
2022/02/09 20:49:15;;;;;;;;;;;22.00;44.40;;;;;;5158302;27;19923;-50
2022/02/09 20:51:42;;;;;;;;;;;22.00;44.40;;;;;;5139807;27;19923;-51
2022/02/09 20:54:09;;;;;;;;;;;22.00;44.40;;;;;;5158572;27;19923;-48
2022/02/09 20:56:36;;;;;;;;;;;22.10;44.50;;;;;;5157461;27;19946;-50
2022/02/09 20:59:08;;;;;;;;;;;22.00;44.40;;;;;;5158523;27;19923;-45
2022/02/09 21:01:52;;;;;;;;;;;22.00;44.40;;;;;;5157398;27;19930;-49
2022/02/09 21:04:23;;;;;;;;;;;22.00;44.40;;;;;;5158139;27;20397;-45
2022/02/09 21:09:34;;;;;;;;;;;22.00;44.40;;;;;;5157893;27;20386;-49
2022/02/09 21:12:16;;;;;;;;;;;22.00;44.30;;;;;;5157219;27;20014;-48
2022/02/09 21:44:48;;;;;;;;;;;22.10;44.40;;;;;;5157547;27;19929;-46
2022/02/09 21:54:54;;;;;;;;;;;22.00;44.30;;;;;;5157150;27;19971;-44
2022/02/09 21:57:55;;;;;;;;;;;22.10;44.40;;;;;;5155827;27;19927;-48
2022/02/09 22:00:31;;;;;;;;;;;22.00;44.30;;;;;;5156998;27;19923;-49
2022/02/09 22:22:04;;;;;;;;;;;22.00;44.40;;;;;;5156767;27;19930;-44
2022/02/09 22:27:28;;;;;;;;;;;22.00;44.40;;;;;;5155504;27;20323;-45
2022/02/09 22:56:52;;;;;;;;;;;22.00;44.40;;;;;;5137304;27;20524;-44
2022/02/09 22:59:40;;;;;;;;;;;22.00;44.40;;;;;;5155846;27;19972;-44
2022/02/09 23:02:14;;;;;;;;;;;22.00;44.50;;;;;;5155076;27;19944;-46
2022/02/09 23:07:28;;;;;;;;;;;22.00;44.50;;;;;;5135346;27;19923;-44
2022/02/09 23:10:06;;;;;;;;;;;22.00;44.50;;;;;;5134087;27;19923;-43
2022/02/09 23:12:46;;;;;;;;;;;22.00;44.50;;;;;;5141532;27;19927;-45
